Time;durP1;ratioP1;P1;durP2;ratioP2;P2;SDS_P1;SDS_P2;PMS_P1;PMS_P2;Temp;Humidity;BMP_temperature;BMP_pressure;BME280_temperature;BME280_humidity;BME280_pressure;Samples;Min_cycle;Max_cycle;Signal;HPM_P1;HPM_P2
2023/01/04 00:01:31;;;;;;;0.60;0.60;;;;;;;3.52;90.74;98092.19;29373;198;63009;-90
2023/01/04 00:03:38;;;;;;;;;;;;;;;;;;;;;
2023/01/04 00:04:49;;;;;;;0.70;0.70;;;;;;;3.63;89.40;98091.50;29373;268;63009;-91
2023/01/04 00:05:49;;;;;;;0.60;0.60;;;;;;;3.64;89.29;98089.63;29373;208;63004;-90
2023/01/04 00:06:56;;;;;;;0.68;0.68;;;;;;;3.67;89.16;98090.03;29371;332;64013;-90
2023/01/04 00:07:55;;;;;;;0.70;0.70;;;;;;;3.65;88.87;98096.66;29373;234;63004;-91
2023/01/04 00:08:28;;;;;;;0.70;0.70;;;;;;;3.57;89.26;98092.38;29373;251;63009;-89
2023/01/04 00:09:44;;;;;;;0.60;0.60;;;;;;;3.55;89.71;98085.56;29373;202;63005;-91
2023/01/04 00:11:16;;;;;;;0.60;0.60;;;;;;;3.51;89.95;98084.38;29372;216;64013;-91
2023/01/04 00:12:12;;;;;;;0.60;0.60;;;;;;;3.55;89.29;98085.56;29373;345;63005;-90
2023/01/04 00:13:03;;;;;;;0.60;0.60;;;;;;;3.53;89.68;98087.66;29394;197;64013;-91
2023/01/04 00:14:03;;;;;;;0.70;0.70;;;;;;;3.57;89.18;98086.19;29395;202;63004;-90
2023/01/04 00:15:22;;;;;;;0.60;0.60;;;;;;;3.50;89.36;98080.03;29371;244;64013;-90
2023/01/04 00:16:21;;;;;;;0.70;0.70;;;;;;;3.49;89.41;98089.94;29373;257;63005;-91
2023/01/04 00:17:42;;;;;;;0.70;0.70;;;;;;;3.49;89.66;98081.91;29373;225;63009;-90
2023/01/04 00:18:36;;;;;;;0.60;0.60;;;;;;;3.51;89.72;98084.38;29371;242;64009;-89
2023/01/04 00:19:23;;;;;;;0.60;0.60;;;;;;;3.49;89.99;98086.44;29372;222;64013;-90
2023/01/04 00:21:01;;;;;;;0.60;0.60;;;;;;;3.47;89.70;98072.44;29373;341;63009;-90
2023/01/04 00:22:44;;;;;;;0.70;0.70;;;;;;;3.60;88.53;98077.69;29373;250;63004;-90
2023/01/04 00:23:18;;;;;;;0.60;0.60;;;;;;;3.56;88.64;98077.31;29373;199;63005;-90
2023/01/04 00:24:04;;;;;;;0.60;0.60;;;;;;;3.52;88.62;98075.28;29373;308;63009;-90
2023/01/04 00:24:58;;;;;;;0.70;0.70;;;;;;;3.51;89.10;98077.12;29372;347;64009;-92
2023/01/04 00:26:29;;;;;;;1.60;1.50;;;;;;;3.48;89.05;98063.34;29373;246;63009;-90
2023/01/04 00:27:49;;;;;;;0.62;0.62;;;;;;;3.50;88.82;98066.63;29373;316;63004;-90
2023/01/04 00:28:44;;;;;;;0.73;0.73;;;;;;;3.55;88.67;98059.56;29373;224;63009;-92
2023/01/04 00:30:12;;;;;;;0.70;0.70;;;;;;;3.51;88.74;98062.91;29372;264;64013;-91
2023/01/04 00:31:14;;;;;;;0.70;0.70;;;;;;;3.41;89.12;98062.59;29372;198;64014;-91
2023/01/04 00:32:15;;;;;;;0.70;0.70;;;;;;;3.36;89.41;98056.03;29373;222;63005;-89
2023/01/04 00:33:12;;;;;;;0.60;0.60;;;;;;;3.39;89.58;98053.94;29373;329;63009;-91
2023/01/04 00:34:10;;;;;;;0.70;0.70;;;;;;;3.51;88.85;98050.31;29373;296;63005;-91
2023/01/04 00:35:02;;;;;;;;;;;;;;;3.50;88.72;98042.47;29974;986;28004;-91
2023/01/04 00:35:38;;;;;;;0.68;0.68;;;;;;;3.46;88.72;98044.81;29400;318;63004;-89
2023/01/04 00:36:39;;;;;;;0.60;0.60;;;;;;;3.46;88.98;98043.97;29373;247;63000;-92
2023/01/04 00:38:00;;;;;;;1.05;1.05;;;;;;;3.41;89.08;98041.13;29373;199;63004;-89
2023/01/04 00:39:18;;;;;;;0.62;0.62;;;;;;;3.45;88.87;98026.25;29373;332;63001;-92
2023/01/04 00:40:41;;;;;;;0.60;0.60;;;;;;;3.45;88.87;98037.78;29373;203;63005;-90
2023/01/04 00:42:06;;;;;;;1.00;1.00;;;;;;;3.45;88.66;98031.59;29371;223;64009;-90
2023/01/04 00:43:47;;;;;;;0.70;0.70;;;;;;;3.45;88.56;98034.28;29395;204;63009;-90
2023/01/04 00:44:52;;;;;;;0.70;0.70;;;;;;;3.39;88.79;98037.84;29395;221;63004;-89
2023/01/04 00:45:41;;;;;;;0.70;0.70;;;;;;;3.39;88.77;98029.78;29373;315;63009;-92
2023/01/04 00:46:31;;;;;;;0.70;0.70;;;;;;;3.38;88.60;98028.97;29371;213;64009;-89
2023/01/04 00:47:32;;;;;;;0.70;0.70;;;;;;;3.33;88.70;98024.25;29395;233;63009;-91
2023/01/04 00:49:30;;;;;;;;;;;;;;;;;;;;;
2023/01/04 00:51:20;;;;;;;0.60;0.60;;;;;;;3.39;88.53;98011.84;29371;231;64009;-92
2023/01/04 00:52:13;;;;;;;0.60;0.60;;;;;;;3.41;88.27;98011.63;29373;227;63008;-88
2023/01/04 00:54:08;;;;;;;0.60;0.60;;;;;;;3.35;88.59;98006.09;29373;300;63005;-91
2023/01/04 00:55:28;;;;;;;0.80;0.80;;;;;;;3.36;88.27;98007.72;29372;287;64013;-91
2023/01/04 00:57:00;;;;;;;1.02;1.02;;;;;;;3.42;87.83;98005.22;29373;254;63005;-91
2023/01/04 00:57:56;;;;;;;0.65;0.65;;;;;;;3.49;87.27;98011.31;29395;229;63009;-91
2023/01/04 00:59:43;;;;;;;1.30;1.30;;;;;;;3.50;87.27;98013.78;29394;200;64009;-90
2023/01/04 01:00:41;;;;;;;1.23;1.23;;;;;;;3.47;87.15;98008.84;29371;199;64014;-92
2023/01/04 01:01:47;;;;;;;0.90;0.90;;;;;;;3.51;86.92;98014.59;29371;225;64009;-92
2023/01/04 01:02:47;;;;;;;0.70;0.70;;;;;;;3.36;87.18;98013.09;29373;217;63009;-90
2023/01/04 01:04:23;;;;;;;0.70;0.70;;;;;;;3.30;87.83;98015.81;29373;240;63005;-91
2023/01/04 01:06:03;;;;;;;0.70;0.70;;;;;;;3.30;87.19;98011.28;29373;221;63004;-90
2023/01/04 01:06:59;;;;;;;0.60;0.60;;;;;;;3.21;87.88;98003.72;29371;196;64013;-92
2023/01/04 01:07:40;;;;;;;0.68;0.68;;;;;;;3.17;87.96;98010.56;29373;201;63004;-91
2023/01/04 01:09:27;;;;;;;0.62;0.62;;;;;;;3.22;87.96;98005.38;29373;249;63009;-92
2023/01/04 01:10:29;;;;;;;0.60;0.60;;;;;;;3.25;88.33;98012.97;29373;344;63009;-92
2023/01/04 01:11:55;;;;;;;0.55;0.55;;;;;;;3.25;87.78;98010.28;29373;354;63005;-92
2023/01/04 01:13:15;;;;;;;1.25;1.25;;;;;;;3.36;86.93;98013.09;29371;261;64013;-92
2023/01/04 01:14:33;;;;;;;0.68;0.68;;;;;;;3.23;87.61;98013.19;29372;210;64013;-91
2023/01/04 01:15:31;;;;;;;1.23;1.23;;;;;;;3.16;87.82;98023.16;29371;264;63997;-91
2023/01/04 01:16:19;;;;;;;0.60;0.60;;;;;;;3.07;88.51;98016.44;29373;229;63009;-91
2023/01/04 01:17:12;;;;;;;0.62;0.62;;;;;;;2.97;88.78;98018.75;29373;219;63005;-91
2023/01/04 01:17:47;;;;;;;0.70;0.70;;;;;;;2.93;89.38;98021.03;29371;251;64013;-93
2023/01/04 01:18:24;;;;;;;0.60;0.60;;;;;;;2.90;89.75;98026.03;29373;223;63005;-91
2023/01/04 01:19:14;;;;;;;0.60;0.60;;;;;;;2.87;90.09;98013.88;29373;234;63009;-93
2023/01/04 01:19:55;;;;;;;0.62;0.62;;;;;;;2.90;89.94;98013.44;29373;206;63004;-91
2023/01/04 01:20:27;;;;;;;0.57;0.57;;;;;;;2.84;89.85;98003.56;29393;328;64013;-91
2023/01/04 01:21:31;;;;;;;0.60;0.60;;;;;;;3.04;89.04;98008.81;29395;257;63004;-90
2023/01/04 01:22:08;;;;;;;0.70;0.70;;;;;;;3.07;89.32;98008.38;29373;241;63008;-90
2023/01/04 01:22:43;;;;;;;0.60;0.60;;;;;;;3.15;88.64;98010.78;29372;268;64008;-90
2023/01/04 01:23:34;;;;;;;0.60;0.60;;;;;;;3.17;87.88;98008.69;29372;296;64014;-90
2023/01/04 01:24:26;;;;;;;0.70;0.70;;;;;;;3.17;88.07;98008.69;29373;231;63005;-90
2023/01/04 01:24:58;;;;;;;0.88;0.88;;;;;;;3.17;88.07;98014.06;29373;238;63009;-89
2023/01/04 01:25:34;;;;;;;0.60;0.60;;;;;;;3.11;87.97;98009.59;29373;246;63005;-89
2023/01/04 01:26:11;;;;;;;0.62;0.62;;;;;;;3.07;88.48;98013.75;29373;238;63009;-91
2023/01/04 01:27:05;;;;;;;0.70;0.70;;;;;;;2.98;88.76;98009.69;29373;279;63004;-91
2023/01/04 01:27:45;;;;;;;0.62;0.62;;;;;;;2.94;88.68;98008.47;29372;271;64013;-91
2023/01/04 01:29:29;;;;;;;0.65;0.65;;;;;;;2.94;89.04;98014.66;29371;207;64008;-92
2023/01/04 01:30:26;;;;;;;0.60;0.60;;;;;;;2.89;89.17;98010.97;29371;282;64014;-91
2023/01/04 01:31:30;;;;;;;;;;;;;;;;;;;;;
2023/01/04 01:32:08;;;;;;;0.70;0.70;;;;;;;2.97;89.37;98019.59;29371;325;64013;-92
2023/01/04 01:32:47;;;;;;;0.60;0.60;;;;;;;2.99;89.50;98011.31;29373;311;63005;-89
2023/01/04 01:34:38;;;;;;;0.84;0.84;;;;;;;3.09;88.66;98016.22;88164;214;64004;-90
2023/01/04 01:35:13;;;;;;;0.70;0.70;;;;;;;3.00;88.86;98019.16;29394;282;64009;-90
2023/01/04 01:36:05;;;;;;;0.60;0.60;;;;;;;2.96;89.30;98019.78;29373;271;63005;-91
2023/01/04 01:36:42;;;;;;;0.70;0.70;;;;;;;2.93;89.44;98020.22;29373;224;63009;-90
2023/01/04 01:37:31;;;;;;;0.60;0.60;;;;;;;2.95;89.79;98015.47;29373;276;63004;-92
2023/01/04 01:38:10;;;;;;;0.60;0.60;;;;;;;2.94;89.90;98019.19;29373;259;63009;-90
2023/01/04 01:39:39;;;;;;;0.60;0.60;;;;;;;2.90;89.98;98018.78;29373;288;63004;-90
2023/01/04 01:40:42;;;;;;;0.60;0.60;;;;;;;2.97;89.79;98013.41;29371;300;64013;-92
2023/01/04 01:42:02;;;;;;;0.60;0.60;;;;;;;2.99;89.72;98016.69;29373;366;63005;-92
2023/01/04 01:42:37;;;;;;;0.60;0.60;;;;;;;2.96;89.74;98020.63;29373;264;63009;-91
2023/01/04 01:43:31;;;;;;;;;;;;;;;;;;;;;
2023/01/04 01:45:11;;;;;;;0.60;0.60;;;;;;;2.94;89.91;98024.56;29395;208;63009;-90
2023/01/04 01:46:37;;;;;;;0.60;0.60;;;;;;;2.94;90.14;98024.56;29371;303;64013;-92
2023/01/04 01:47:52;;;;;;;0.57;0.57;;;;;;;2.95;89.99;98032.38;29373;295;63004;-91
2023/01/04 01:48:36;;;;;;;0.60;0.60;;;;;;;2.99;90.22;98032.78;29371;247;64014;-91
2023/01/04 01:49:46;;;;;;;0.60;0.60;;;;;;;2.97;90.08;98027.63;29373;262;63005;-93
2023/01/04 01:51:17;;;;;;;;;;;;;;;;;;;;;
2023/01/04 01:52:49;;;;;;;0.60;0.60;;;;;;;3.03;90.21;98033.97;29373;330;63005;-93
2023/01/04 01:54:31;;;;;;;;;;;;;;;;;;;;;
2023/01/04 01:56:12;;;;;;;0.60;0.60;;;;;;;3.05;89.82;98031.91;29371;208;64008;-92
2023/01/04 01:56:59;;;;;;;0.60;0.60;;;;;;;3.03;89.74;98023.25;29373;218;63009;-92
2023/01/04 01:57:57;;;;;;;0.70;0.70;;;;;;;3.09;90.06;98027.75;29395;293;63005;-91
2023/01/04 01:58:59;;;;;;;0.60;0.60;;;;;;;3.20;89.90;98023.53;29395;206;63009;-91
2023/01/04 02:00:07;;;;;;;0.60;0.60;;;;;;;3.27;89.40;98022.44;29373;221;63005;-91
2023/01/04 02:00:42;;;;;;;0.60;0.60;;;;;;;3.26;89.38;98018.13;29371;318;64013;-92
2023/01/04 02:01:39;;;;;;;0.70;0.70;;;;;;;3.28;89.17;98021.41;29373;196;63004;-93
2023/01/04 02:02:50;;;;;;;0.60;0.60;;;;;;;3.28;89.30;98021.41;29373;348;63009;-90
2023/01/04 02:03:43;;;;;;;0.60;0.60;;;;;;;3.36;88.79;98023.81;29373;274;63009;-90
2023/01/04 02:05:04;;;;;;;0.60;0.60;;;;;;;3.35;88.70;98021.34;29373;230;63005;-91
2023/01/04 02:06:03;;;;;;;0.70;0.70;;;;;;;3.39;88.64;98022.56;29372;253;64001;-93
2023/01/04 02:06:51;;;;;;;0.60;0.60;;;;;;;3.41;88.45;98019.66;29373;226;63005;-90
2023/01/04 02:08:21;;;;;;;0.60;0.60;;;;;;;3.39;88.44;98021.75;29373;241;63009;-92
2023/01/04 02:09:20;;;;;;;0.70;0.70;;;;;;;3.37;88.71;98014.75;29373;223;63004;-91
2023/01/04 02:10:19;;;;;;;0.65;0.65;;;;;;;3.38;88.50;98015.56;29373;198;63008;-92
2023/01/04 02:11:34;;;;;;;0.70;0.70;;;;;;;3.38;88.74;98015.56;29372;272;64009;-92
2023/01/04 02:12:55;;;;;;;;;;;;;;;;;;;;;
2023/01/04 02:14:34;;;;;;;0.60;0.60;;;;;;;3.39;88.53;98016.38;29395;297;63009;-92
2023/01/04 02:16:01;;;;;;;0.60;0.60;;;;;;;3.40;88.04;98007.28;29373;286;63004;-89
2023/01/04 02:17:27;;;;;;;;;;;;;;;;;;;;;
2023/01/04 02:18:27;;;;;;;0.60;0.60;;;;;;;3.48;87.77;98015.03;29373;254;63004;-90
2023/01/04 02:19:58;;;;;;;0.70;0.70;;;;;;;3.47;88.13;98014.22;29373;231;63009;-90
2023/01/04 02:21:15;;;;;;;0.60;0.60;;;;;;;3.49;88.15;98011.31;29395;248;63009;-92
2023/01/04 02:22:49;;;;;;;0.60;0.60;;;;;;;3.50;88.35;98012.97;29394;203;64009;-91
2023/01/04 02:23:58;;;;;;;0.60;0.60;;;;;;;3.54;88.16;98011.47;29373;196;63009;-90
2023/01/04 02:25:20;;;;;;;0.60;0.60;;;;;;;3.48;88.33;98009.66;29373;284;63008;-92
2023/01/04 02:26:57;;;;;;;;;;;;;;;;;;;;;
2023/01/04 02:28:18;;;;;;;0.60;0.60;;;;;;;3.64;87.15;98009.13;29371;197;64009;-91
2023/01/04 02:30:09;;;;;;;0.60;0.60;;;;;;;3.58;87.33;98007.31;29373;223;63009;-92
2023/01/04 02:31:15;;;;;;;1.52;1.42;;;;;;;3.54;87.83;98006.94;29373;282;63004;-90
2023/01/04 02:32:42;;;;;;;0.60;0.60;;;;;;;3.64;87.23;98003.75;29373;275;63004;-91
2023/01/04 02:33:57;;;;;;;0.70;0.70;;;;;;;3.61;87.99;98004.19;29371;197;64014;-90
2023/01/04 02:35:20;;;;;;;0.60;0.60;;;;;;;3.52;88.37;98000.16;29373;196;63005;-91
2023/01/04 02:36:58;;;;;;;0.60;0.60;;;;;;;3.57;87.83;98008.34;29373;261;63009;-93
2023/01/04 02:38:29;;;;;;;0.60;0.60;;;;;;;3.48;88.31;97999.75;29373;256;63004;-90
2023/01/04 02:40:21;;;;;;;;;;;;;;;;;;;;;
2023/01/04 02:41:33;;;;;;;0.60;0.60;;;;;;;3.55;88.42;97988.97;29373;329;63005;-91
2023/01/04 02:45:03;;;;;;;;;;;;;;;;;;;;;
2023/01/04 02:45:43;;;;;;;0.60;0.60;;;;;;;3.44;88.51;97982.50;29373;274;63009;-91
2023/01/04 02:46:49;;;;;;;0.60;0.60;;;;;;;3.44;89.12;97976.31;29371;290;64020;-91
2023/01/04 02:50:52;;;;;;;1.00;1.00;;;;;;;3.32;89.46;97979.69;29373;253;63009;-92
2023/01/04 02:52:24;;;;;;;0.77;0.77;;;;;;;3.36;89.30;97980.91;29373;247;63005;-91
2023/01/04 02:53:57;;;;;;;0.68;0.68;;;;;;;3.36;89.01;97983.59;29372;202;64013;-91
2023/01/04 02:55:18;;;;;;;0.70;0.70;;;;;;;3.39;89.05;97982.31;29373;212;63004;-92
2023/01/04 02:56:50;;;;;;;;;;;;;;;;;;;;;
2023/01/04 02:58:26;;;;;;;;;;;;;;;;;;;;;
2023/01/04 02:59:59;;;;;;;0.60;0.60;;;;;;;3.36;88.91;97986.25;29371;217;64013;-92
2023/01/04 03:06:35;;;;;;;0.60;0.60;;;;;;;3.32;89.00;97979.69;29373;218;63009;-91
2023/01/04 03:07:43;;;;;;;0.60;0.60;;;;;;;3.27;89.28;97976.84;29371;213;64013;-90
2023/01/04 03:09:10;;;;;;;0.60;0.60;;;;;;;3.26;89.10;97966.34;29373;233;63004;-91
2023/01/04 03:11:05;;;;;;;1.48;1.48;;;;;;;3.27;89.26;97971.47;29373;230;63008;-91
2023/01/04 03:12:36;;;;;;;0.60;0.60;;;;;;;3.36;88.60;97963.97;29373;298;63005;-91
2023/01/04 03:14:07;;;;;;;0.60;0.60;;;;;;;3.44;88.44;97957.53;29371;221;64013;-92
2023/01/04 03:16:23;;;;;;;;;;;;;;;;;;;;;
2023/01/04 03:18:06;;;;;;;0.60;0.60;;;;;;;3.36;87.98;97956.75;29373;278;63005;-91
2023/01/04 03:20:03;;;;;;;0.60;0.60;;;;;;;3.43;87.58;97953.19;29394;296;64009;-92
2023/01/04 03:35:21;;;;;;;0.50;0.50;;;;;;;3.35;88.24;97949.75;29394;196;64013;-92
2023/01/04 03:36:43;;;;;;;0.70;0.70;;;;;;;3.32;87.49;97952.06;29373;333;63005;-91
2023/01/04 03:48:56;;;;;;;0.70;0.70;;;;;;;3.33;87.45;97946.47;29372;203;64009;-92
2023/01/04 03:51:41;;;;;;;0.50;0.50;;;;;;;3.44;86.41;97944.09;29371;209;64013;-93
2023/01/04 03:52:51;;;;;;;0.60;0.60;;;;;;;3.37;86.97;97944.97;29373;275;63004;-91
2023/01/04 03:54:03;;;;;;;0.60;0.60;;;;;;;3.34;87.24;97948.09;29373;238;63009;-91
2023/01/04 03:54:47;;;;;;;0.62;0.62;;;;;;;3.31;87.18;97945.88;29373;232;63004;-91
2023/01/04 03:55:32;;;;;;;0.60;0.60;;;;;;;3.29;87.38;97942.59;29373;361;63009;-92
2023/01/04 03:56:28;;;;;;;0.70;0.70;;;;;;;3.30;87.21;97938.03;29355;200;125005;-92
2023/01/04 03:57:07;;;;;;;0.60;0.60;;;;;;;3.29;87.26;97942.59;29372;202;64013;-90
2023/01/04 03:57:42;;;;;;;0.60;0.60;;;;;;;3.28;87.28;97940.94;29373;317;63005;-90
2023/01/04 03:58:50;;;;;;;0.60;0.60;;;;;;;3.29;87.24;97931.03;29372;229;64013;-92
2023/01/04 03:59:22;;;;;;;;;;;;;;;3.27;87.08;97941.97;29974;986;28000;-89
2023/01/04 04:00:35;;;;;;;0.60;0.60;;;;;;;3.36;86.97;97934.47;29400;239;63004;-90
2023/01/04 04:01:08;;;;;;;0.60;0.60;;;;;;;3.37;86.77;97933.44;29395;199;63009;-91
2023/01/04 04:01:44;;;;;;;0.60;0.60;;;;;;;3.35;87.15;97936.34;29373;275;63004;-90
2023/01/04 04:02:23;;;;;;;0.70;0.70;;;;;;;3.35;86.90;97941.69;29373;243;63009;-92
2023/01/04 04:03:20;;;;;;;0.62;0.62;;;;;;;3.38;87.23;97937.75;29373;215;63005;-90
2023/01/04 04:09:34;;;;;;;0.65;0.65;;;;;;;3.41;86.37;97928.44;29373;284;63013;-89
2023/01/04 04:13:05;;;;;;;;;;;;;;;;;;;;;
2023/01/04 04:14:52;;;;;;;0.60;0.60;;;;;;;3.48;86.20;97929.19;29372;333;64013;-90
2023/01/04 04:16:23;;;;;;;;;;;;;;;;;;;;;
2023/01/04 04:17:46;;;;;;;0.70;0.70;;;;;;;3.56;85.81;97926.22;29373;218;64013;-91
2023/01/04 04:18:25;;;;;;;0.70;0.70;;;;;;;3.64;85.63;97921.38;29372;222;64009;-91
2023/01/04 04:19:58;;;;;;;1.50;1.50;;;;;;;3.58;85.77;97929.50;29374;269;63016;-92
2023/01/04 04:21:09;;;;;;;0.70;0.70;;;;;;;3.55;86.15;97920.03;29374;330;63005;-90
2023/01/04 04:22:37;;;;;;;;;;;;;;;;;;;;;
2023/01/04 04:23:52;;;;;;;0.70;0.70;;;;;;;3.63;85.62;97918.91;29374;230;63004;-91
2023/01/04 04:24:58;;;;;;;0.60;0.60;;;;;;;3.60;85.75;97905.94;29396;198;63008;-90
2023/01/04 04:27:34;;;;;;;0.70;0.70;;;;;;;3.77;84.62;97908.84;29372;209;64013;-90
2023/01/04 04:28:29;;;;;;;0.60;0.60;;;;;;;3.72;85.13;97914.91;29374;351;63004;-90
2023/01/04 04:29:46;;;;;;;0.60;0.60;;;;;;;3.75;85.26;97908.25;29374;208;63009;-92
2023/01/04 04:31:00;;;;;;;0.70;0.70;;;;;;;3.73;85.01;97905.81;29374;269;63004;-91
2023/01/04 04:34:02;;;;;;;0.60;0.60;;;;;;;3.66;85.33;97903.19;29395;203;64013;-90
2023/01/04 04:35:33;;;;;;;0.60;0.60;;;;;;;3.77;85.39;97911.53;29374;278;63005;-92
2023/01/04 04:37:39;;;;;;;0.60;0.60;;;;;;;3.82;85.08;97898.25;29374;264;63009;-92
2023/01/04 04:38:52;;;;;;;0.60;0.60;;;;;;;3.70;85.44;97906.25;29373;202;64009;-90
2023/01/04 04:41:51;;;;;;;;;;;;;;;3.76;85.08;97899.97;29975;986;28000;-91
2023/01/04 04:42:54;;;;;;;0.60;0.60;;;;;;;3.74;85.27;97903.94;29401;285;63005;-92
2023/01/04 04:44:17;;;;;;;0.60;0.60;;;;;;;3.75;85.30;97903.72;29373;199;64013;-91
2023/01/04 04:45:55;;;;;;;;;;;;;;;;;;;;;
2023/01/04 04:47:24;;;;;;;0.93;0.93;;;;;;;3.76;85.52;97910.72;29375;214;63008;-91
2023/01/04 04:48:40;;;;;;;0.60;0.60;;;;;;;3.71;85.51;97905.19;29375;352;63005;-92
2023/01/04 04:49:51;;;;;;;0.60;0.60;;;;;;;3.67;85.57;97912.06;29373;230;64013;-92
2023/01/04 04:50:49;;;;;;;0.60;0.60;;;;;;;3.80;84.90;97917.28;29374;197;63009;-91
2023/01/04 04:51:46;;;;;;;0.60;0.60;;;;;;;3.81;84.97;97902.00;29375;197;63009;-89
2023/01/04 04:52:59;;;;;;;0.60;0.60;;;;;;;3.81;85.22;97910.84;29374;254;64013;-91
2023/01/04 04:54:20;;;;;;;0.60;0.60;;;;;;;3.74;85.63;97907.44;29376;202;63004;-91
2023/01/04 04:55:40;;;;;;;0.60;0.60;;;;;;;3.76;85.41;97904.53;29374;205;64014;-91
2023/01/04 04:56:40;;;;;;;0.60;0.60;;;;;;;3.84;84.98;97902.34;29375;236;64009;-92
2023/01/04 04:57:36;;;;;;;0.60;0.60;;;;;;;3.84;84.68;97901.53;29376;295;63009;-92
2023/01/04 04:58:53;;;;;;;0.70;0.70;;;;;;;3.83;84.77;97889.97;29398;339;63005;-92
2023/01/04 04:59:42;;;;;;;0.60;0.60;;;;;;;3.85;84.54;97892.41;29396;358;64013;-91
2023/01/04 05:01:31;;;;;;;0.67;0.67;;;;;;;3.79;84.86;97883.44;88181;234;64004;-90
2023/01/04 05:02:45;;;;;;;0.60;0.60;;;;;;;3.88;84.77;97886.59;29394;222;64009;-90
2023/01/04 05:04:15;;;;;;;0.60;0.60;;;;;;;3.92;84.14;97877.88;29373;250;63005;-91
2023/01/04 05:05:49;;;;;;;0.60;0.60;;;;;;;3.91;84.40;97870.88;29372;203;64013;-91
2023/01/04 05:07:28;;;;;;;1.45;1.35;;;;;;;3.86;84.93;97888.69;29373;199;63004;-92
2023/01/04 05:08:45;;;;;;;0.60;0.60;;;;;;;3.95;84.14;97880.09;29373;228;63009;-91
2023/01/04 05:13:33;;;;;;;0.60;0.60;;;;;;;3.95;84.38;97882.78;29373;375;63004;-91
2023/01/04 05:15:08;;;;;;;0.60;0.60;;;;;;;3.97;84.96;97874.50;29373;231;63008;-90
2023/01/04 05:16:28;;;;;;;0.70;0.70;;;;;;;4.08;84.67;97871.06;29371;334;64009;-92
2023/01/04 05:17:54;;;;;;;0.70;0.70;;;;;;;4.08;84.71;97872.94;29395;198;63005;-91
2023/01/04 05:19:12;;;;;;;0.60;0.60;;;;;;;4.10;84.78;97878.91;29394;345;64013;-91
2023/01/04 05:24:21;;;;;;;0.60;0.60;;;;;;;4.10;84.97;97884.28;29371;242;64014;-91
2023/01/04 05:25:49;;;;;;;;;;;;;;;;;;;;;
2023/01/04 05:26:53;;;;;;;0.70;0.70;;;;;;;4.12;85.33;97884.88;29373;196;63009;-92
2023/01/04 05:28:32;;;;;;;0.70;0.70;;;;;;;4.11;85.34;97885.91;29395;356;63004;-90
2023/01/04 05:30:55;;;;;;;0.60;0.60;;;;;;;4.14;85.24;97882.78;29394;271;64009;-91
2023/01/04 05:32:58;;;;;;;0.60;0.60;;;;;;;4.12;85.56;97877.62;29372;284;64013;-92
2023/01/04 05:34:59;;;;;;;;;;;;;;;;;;;;;
2023/01/04 05:37:06;;;;;;;;;;;;;;;;;;;;;
2023/01/04 05:37:50;;;;;;;0.50;0.50;;;;;;;4.21;84.98;97881.59;29373;222;63005;-89
2023/01/04 05:39:01;;;;;;;0.60;0.60;;;;;;;4.21;84.98;97875.41;29372;320;64014;-90
2023/01/04 05:40:20;;;;;;;0.60;0.60;;;;;;;4.22;85.29;97874.37;29355;364;125005;-91
2023/01/04 05:44:01;;;;;;;;;;;;;;;;;;;;;
2023/01/04 05:46:02;;;;;;;;;;;;;;;;;;;;;
2023/01/04 05:47:58;;;;;;;0.60;0.60;;;;;;;4.33;85.38;97879.78;29372;258;64009;-90
2023/01/04 05:51:36;;;;;;;;;;;;;;;;;;;;;
2023/01/04 05:55:57;;;;;;;0.60;0.60;;;;;;;4.35;85.27;97876.88;29371;220;64013;-92
2023/01/04 05:57:41;;;;;;;;;;;;;;;;;;;;;
2023/01/04 05:59:05;;;;;;;0.60;0.60;;;;;;;4.52;84.05;97869.78;29400;247;63000;-91
2023/01/04 06:00:02;;;;;;;0.60;0.60;;;;;;;4.55;84.08;97872.00;29373;353;63005;-90
2023/01/04 06:01:58;;;;;;;;;;;;;;;;;;;;;
2023/01/04 06:03:18;;;;;;;0.60;0.60;;;;;;;4.71;82.70;97859.78;29373;332;63009;-91
2023/01/04 06:05:17;;;;;;;;;;;;;;;;;;;;;
2023/01/04 06:07:05;;;;;;;0.60;0.60;;;;;;;4.66;83.04;97857.78;29371;203;64009;-91
2023/01/04 06:08:56;;;;;;;;;;;;;;;;;;;;;
2023/01/04 06:10:36;;;;;;;0.60;0.60;;;;;;;4.61;83.40;97854.16;29373;303;63009;-90
2023/01/04 06:12:11;;;;;;;0.70;0.70;;;;;;;4.60;83.63;97858.72;29415;205;64009;-93
2023/01/04 06:14:00;;;;;;;0.60;0.60;;;;;;;4.58;84.18;97854.59;29373;298;63004;-91
2023/01/04 06:15:01;;;;;;;0.60;0.60;;;;;;;4.57;83.78;97839.53;29373;263;63009;-90
2023/01/04 06:15:40;;;;;;;0.62;0.62;;;;;;;4.67;83.90;97843.28;29373;255;63005;-91
2023/01/04 06:16:15;;;;;;;0.60;0.60;;;;;;;4.69;83.74;97845.75;29373;267;63009;-90
2023/01/04 06:17:29;;;;;;;0.60;0.60;;;;;;;4.69;83.53;97845.75;29371;240;64009;-92
2023/01/04 06:18:27;;;;;;;0.60;0.60;;;;;;;4.64;83.16;97835.69;29373;302;63009;-91
2023/01/04 06:19:50;;;;;;;0.70;0.70;;;;;;;4.67;83.73;97848.66;29371;202;64009;-90
2023/01/04 06:21:10;;;;;;;0.62;0.62;;;;;;;4.64;83.97;97854.50;29373;197;63009;-91
2023/01/04 06:22:44;;;;;;;;;;;;;;;;;;;;;
2023/01/04 06:23:50;;;;;;;0.60;0.60;;;;;;;4.67;83.60;97846.00;29371;219;64014;-93
2023/01/04 06:24:42;;;;;;;0.60;0.60;;;;;;;4.70;83.56;97848.22;29373;284;63005;-91
2023/01/04 06:25:43;;;;;;;0.60;0.60;;;;;;;4.71;83.48;97844.47;29373;236;63009;-91
2023/01/04 06:26:35;;;;;;;0.60;0.60;;;;;;;4.70;83.73;97842.84;29373;274;63009;-90
2023/01/04 06:27:42;;;;;;;0.60;0.60;;;;;;;4.69;83.54;97851.94;29373;238;63004;-92
2023/01/04 06:28:54;;;;;;;;;;;;;;;;;;;;;
2023/01/04 06:29:38;;;;;;;0.70;0.70;;;;;;;4.61;83.89;97846.91;29373;202;63004;-93
2023/01/04 06:30:23;;;;;;;0.60;0.60;;;;;;;4.61;84.04;97844.22;29373;325;63009;-92
2023/01/04 06:31:03;;;;;;;0.60;0.60;;;;;;;4.63;83.61;97842.13;29373;273;63005;-92
2023/01/04 06:31:37;;;;;;;0.60;0.60;;;;;;;4.65;83.58;97842.72;29373;291;63009;-92
2023/01/04 06:32:35;;;;;;;0.60;0.60;;;;;;;4.71;83.64;97846.34;29372;334;64009;-90
2023/01/04 06:33:20;;;;;;;0.60;0.60;;;;;;;4.70;83.53;97840.16;29373;216;63009;-91
2023/01/04 06:34:04;;;;;;;0.80;0.80;;;;;;;4.68;83.68;97836.87;29394;204;64009;-89
2023/01/04 06:35:11;;;;;;;0.60;0.60;;;;;;;4.66;83.46;97843.53;29394;218;64013;-91
2023/01/04 06:36:16;;;;;;;0.60;0.60;;;;;;;4.65;83.44;97840.03;29395;199;63004;-90
2023/01/04 06:37:15;;;;;;;0.60;0.60;;;;;;;4.66;83.78;97844.34;29373;294;63008;-91
2023/01/04 06:38:41;;;;;;;;;;;;;;;;;;;;;
2023/01/04 06:39:51;;;;;;;0.65;0.65;;;;;;;4.70;83.64;97842.84;29373;245;63009;-90
2023/01/04 06:40:27;;;;;;;0.60;0.60;;;;;;;4.82;82.70;97842.84;29373;273;63005;-90
2023/01/04 06:42:43;;;;;;;0.60;0.60;;;;;;;4.85;82.12;97855.03;29373;215;63021;-57
2023/01/04 06:43:01;;;;;;;0.70;0.70;;;;;;;4.81;82.43;97843.09;29393;202;64009;-57
2023/01/04 06:43:32;;;;;;;0.50;0.50;;;;;;;4.81;82.44;97843.09;29395;254;63009;-56
2023/01/04 06:44:04;;;;;;;0.57;0.57;;;;;;;4.78;82.63;97843.56;29395;204;63004;-65
2023/01/04 06:44:35;;;;;;;0.73;0.73;;;;;;;4.81;82.42;97846.59;29395;325;63008;-58
2023/01/04 06:45:07;;;;;;;0.60;0.60;;;;;;;4.86;82.31;97845.88;29373;233;63005;-57
2023/01/04 06:45:39;;;;;;;0.60;0.60;;;;;;;4.88;82.14;97844.59;29395;200;63013;-57
2023/01/04 06:46:10;;;;;;;0.60;0.60;;;;;;;4.93;81.83;97847.41;29373;213;63005;-57
2023/01/04 06:46:42;;;;;;;0.52;0.52;;;;;;;4.94;81.73;97850.91;29394;227;64013;-57
2023/01/04 06:47:15;;;;;;;0.60;0.60;;;;;;;4.91;81.59;97854.06;29395;232;63005;-58
2023/01/04 06:47:46;;;;;;;0.60;0.60;;;;;;;4.90;81.73;97842.50;29394;202;64013;-59
2023/01/04 06:48:18;;;;;;;0.60;0.60;;;;;;;4.87;81.67;97844.81;29394;207;64009;-56
2023/01/04 06:48:51;;;;;;;0.60;0.60;;;;;;;4.86;81.94;97843.19;29395;220;63018;-57
2023/01/04 06:49:22;;;;;;;0.60;0.60;;;;;;;4.86;82.03;97844.00;29395;240;63004;-57
2023/01/04 06:49:54;;;;;;;0.60;0.60;;;;;;;4.90;81.82;97847.03;29395;216;63009;-57
2023/01/04 06:50:25;;;;;;;0.60;0.60;;;;;;;4.88;81.74;97844.59;29395;217;63004;-58
2023/01/04 06:50:56;;;;;;;0.60;0.60;;;;;;;4.89;81.75;97843.53;29395;202;63008;-57
2023/01/04 06:51:28;;;;;;;0.60;0.60;;;;;;;4.92;81.89;97844.94;29395;271;63004;-57
2023/01/04 06:51:59;;;;;;;0.60;0.60;;;;;;;4.95;81.72;97852.56;29395;211;63016;-57
2023/01/04 06:52:30;;;;;;;0.60;0.60;;;;;;;4.95;81.84;97844.47;29395;217;63005;-57
2023/01/04 06:53:02;;;;;;;0.60;0.60;;;;;;;4.94;81.56;97843.66;29395;290;63009;-57
2023/01/04 06:53:34;;;;;;;0.60;0.60;;;;;;;4.91;81.65;97846.81;29394;240;64009;-58
2023/01/04 06:54:05;;;;;;;0.50;0.50;;;;;;;4.91;81.73;97848.69;29395;202;63009;-57
2023/01/04 06:54:37;;;;;;;0.60;0.60;;;;;;;4.94;81.84;97848.22;29395;262;63005;-57
2023/01/04 06:55:09;;;;;;;0.60;0.60;;;;;;;4.96;81.50;97840.75;29395;204;63009;-58
2023/01/04 06:55:42;;;;;;;0.60;0.60;;;;;;;4.93;81.54;97838.50;29395;338;63004;-58
2023/01/04 06:56:15;;;;;;;0.60;0.60;;;;;;;4.91;81.67;97854.06;29395;231;63009;-57